sensor_id;sensor_type;location;lat;lon;timestamp;temperature;humidity
19003;DHT22;9634;51.040;13.794;2022-07-04T00:03:55;21.00;99.90
19003;DHT22;9634;51.040;13.794;2022-07-04T00:08:58;20.90;99.90
19003;DHT22;9634;51.040;13.794;2022-07-04T00:14:02;20.90;99.90
19003;DHT22;9634;51.040;13.794;2022-07-04T00:19:04;20.80;99.90
19003;DHT22;9634;51.040;13.794;2022-07-04T00:24:07;20.60;99.90
19003;DHT22;9634;51.040;13.794;2022-07-04T00:29:10;20.40;99.90
19003;DHT22;9634;51.040;13.794;2022-07-04T00:34:13;20.30;99.90
19003;DHT22;9634;51.040;13.794;2022-07-04T00:39:15;20.10;99.90
19003;DHT22;9634;51.040;13.794;2022-07-04T00:44:19;20.10;99.90
19003;DHT22;9634;51.040;13.794;2022-07-04T00:49:21;19.90;99.90
19003;DHT22;9634;51.040;13.794;2022-07-04T00:54:27;19.90;99.90
19003;DHT22;9634;51.040;13.794;2022-07-04T00:59:31;19.80;99.90
19003;DHT22;9634;51.040;13.794;2022-07-04T01:04:34;19.80;99.90
19003;DHT22;9634;51.040;13.794;2022-07-04T01:09:36;20.00;99.90
19003;DHT22;9634;51.040;13.794;2022-07-04T01:14:40;20.00;99.90
19003;DHT22;9634;51.040;13.794;2022-07-04T01:19:42;20.00;99.90
19003;DHT22;9634;51.040;13.794;2022-07-04T01:24:46;20.10;99.90
19003;DHT22;9634;51.040;13.794;2022-07-04T01:29:48;20.00;99.90
19003;DHT22;9634;51.040;13.794;2022-07-04T01:34:50;20.00;99.90
19003;DHT22;9634;51.040;13.794;2022-07-04T01:39:54;19.90;99.90
19003;DHT22;9634;51.040;13.794;2022-07-04T01:44:56;19.90;99.90
19003;DHT22;9634;51.040;13.794;2022-07-04T01:49:59;19.80;99.90
19003;DHT22;9634;51.040;13.794;2022-07-04T01:55:03;19.90;99.90
19003;DHT22;9634;51.040;13.794;2022-07-04T02:00:08;20.00;99.90
19003;DHT22;9634;51.040;13.794;2022-07-04T02:05:28;20.00;99.90
19003;DHT22;9634;51.040;13.794;2022-07-04T02:10:32;20.00;99.90
19003;DHT22;9634;51.040;13.794;2022-07-04T02:15:37;20.00;99.90
19003;DHT22;9634;51.040;13.794;2022-07-04T02:20:39;19.90;99.90
19003;DHT22;9634;51.040;13.794;2022-07-04T02:25:43;19.90;99.90
19003;DHT22;9634;51.040;13.794;2022-07-04T02:30:45;19.90;99.90
19003;DHT22;9634;51.040;13.794;2022-07-04T02:35:48;19.90;99.90
19003;DHT22;9634;51.040;13.794;2022-07-04T02:40:51;19.80;99.90
19003;DHT22;9634;51.040;13.794;2022-07-04T02:45:54;19.70;99.90
19003;DHT22;9634;51.040;13.794;2022-07-04T02:50:56;19.70;99.90
19003;DHT22;9634;51.040;13.794;2022-07-04T02:55:59;19.60;99.90
19003;DHT22;9634;51.040;13.794;2022-07-04T03:01:04;19.60;99.90
19003;DHT22;9634;51.040;13.794;2022-07-04T03:06:06;19.50;99.90
19003;DHT22;9634;51.040;13.794;2022-07-04T03:11:10;19.50;99.90
19003;DHT22;9634;51.040;13.794;2022-07-04T03:16:12;19.60;99.90
19003;DHT22;9634;51.040;13.794;2022-07-04T03:21:15;19.60;99.90
19003;DHT22;9634;51.040;13.794;2022-07-04T03:26:18;19.60;99.90
19003;DHT22;9634;51.040;13.794;2022-07-04T03:31:21;19.60;99.90
19003;DHT22;9634;51.040;13.794;2022-07-04T03:36:24;19.60;99.90
19003;DHT22;9634;51.040;13.794;2022-07-04T03:41:28;19.60;99.90
19003;DHT22;9634;51.040;13.794;2022-07-04T03:46:30;19.70;99.90
19003;DHT22;9634;51.040;13.794;2022-07-04T03:51:32;19.70;99.90
19003;DHT22;9634;51.040;13.794;2022-07-04T03:56:36;19.70;99.90
19003;DHT22;9634;51.040;13.794;2022-07-04T04:01:39;19.80;99.90
19003;DHT22;9634;51.040;13.794;2022-07-04T04:06:42;19.80;99.90
19003;DHT22;9634;51.040;13.794;2022-07-04T04:11:45;19.80;99.90
19003;DHT22;9634;51.040;13.794;2022-07-04T04:16:48;19.80;99.90
19003;DHT22;9634;51.040;13.794;2022-07-04T04:21:50;19.70;99.90
19003;DHT22;9634;51.040;13.794;2022-07-04T04:26:54;19.60;99.90
19003;DHT22;9634;51.040;13.794;2022-07-04T04:31:56;19.60;99.90
19003;DHT22;9634;51.040;13.794;2022-07-04T04:36:59;19.50;99.90
19003;DHT22;9634;51.040;13.794;2022-07-04T04:42:03;19.70;99.90
19003;DHT22;9634;51.040;13.794;2022-07-04T04:47:05;19.90;99.90
19003;DHT22;9634;51.040;13.794;2022-07-04T04:52:08;20.10;99.90
19003;DHT22;9634;51.040;13.794;2022-07-04T04:57:12;20.20;99.90
19003;DHT22;9634;51.040;13.794;2022-07-04T05:02:14;20.40;99.90
19003;DHT22;9634;51.040;13.794;2022-07-04T05:07:16;20.20;99.90
19003;DHT22;9634;51.040;13.794;2022-07-04T05:12:20;20.10;99.90
19003;DHT22;9634;51.040;13.794;2022-07-04T05:17:22;20.00;99.90
19003;DHT22;9634;51.040;13.794;2022-07-04T05:22:25;19.80;99.90
19003;DHT22;9634;51.040;13.794;2022-07-04T05:27:29;19.40;99.90
19003;DHT22;9634;51.040;13.794;2022-07-04T05:32:31;19.20;99.90
19003;DHT22;9634;51.040;13.794;2022-07-04T05:37:34;19.40;99.90
19003;DHT22;9634;51.040;13.794;2022-07-04T05:42:38;19.60;99.90
19003;DHT22;9634;51.040;13.794;2022-07-04T05:47:40;19.70;99.90
19003;DHT22;9634;51.040;13.794;2022-07-04T05:52:42;19.90;99.90
19003;DHT22;9634;51.040;13.794;2022-07-04T05:57:46;20.00;99.90
19003;DHT22;9634;51.040;13.794;2022-07-04T06:02:48;20.10;99.90
19003;DHT22;9634;51.040;13.794;2022-07-04T06:07:51;20.20;99.90
19003;DHT22;9634;51.040;13.794;2022-07-04T06:12:54;20.50;99.90
19003;DHT22;9634;51.040;13.794;2022-07-04T06:17:57;20.60;99.90
19003;DHT22;9634;51.040;13.794;2022-07-04T06:22:59;20.70;99.90
19003;DHT22;9634;51.040;13.794;2022-07-04T06:28:03;21.00;99.90
19003;DHT22;9634;51.040;13.794;2022-07-04T06:33:05;21.10;99.90
19003;DHT22;9634;51.040;13.794;2022-07-04T06:38:08;21.30;99.90
19003;DHT22;9634;51.040;13.794;2022-07-04T06:43:12;21.40;99.90
19003;DHT22;9634;51.040;13.794;2022-07-04T06:48:14;21.50;99.90
19003;DHT22;9634;51.040;13.794;2022-07-04T06:53:16;21.80;99.90
19003;DHT22;9634;51.040;13.794;2022-07-04T06:58:20;22.10;99.90
19003;DHT22;9634;51.040;13.794;2022-07-04T07:03:22;22.40;99.90
19003;DHT22;9634;51.040;13.794;2022-07-04T07:08:25;22.60;99.90
19003;DHT22;9634;51.040;13.794;2022-07-04T07:13:29;22.60;99.90
19003;DHT22;9634;51.040;13.794;2022-07-04T07:18:31;22.90;99.90
19003;DHT22;9634;51.040;13.794;2022-07-04T07:23:34;22.70;99.90
19003;DHT22;9634;51.040;13.794;2022-07-04T07:28:40;22.80;99.90
19003;DHT22;9634;51.040;13.794;2022-07-04T07:33:42;23.10;99.90
19003;DHT22;9634;51.040;13.794;2022-07-04T07:38:45;23.10;99.90
19003;DHT22;9634;51.040;13.794;2022-07-04T07:43:48;23.10;99.90
19003;DHT22;9634;51.040;13.794;2022-07-04T07:48:51;23.30;99.90
19003;DHT22;9634;51.040;13.794;2022-07-04T07:53:53;23.10;99.90
19003;DHT22;9634;51.040;13.794;2022-07-04T07:58:57;23.20;99.90
19003;DHT22;9634;51.040;13.794;2022-07-04T08:03:59;23.50;99.90
19003;DHT22;9634;51.040;13.794;2022-07-04T08:09:19;23.30;99.90
19003;DHT22;9634;51.040;13.794;2022-07-04T08:14:23;23.50;99.90
19003;DHT22;9634;51.040;13.794;2022-07-04T08:19:25;23.70;99.90
19003;DHT22;9634;51.040;13.794;2022-07-04T08:24:27;23.50;99.90
19003;DHT22;9634;51.040;13.794;2022-07-04T08:29:32;23.80;99.90
19003;DHT22;9634;51.040;13.794;2022-07-04T08:34:34;23.50;99.90
19003;DHT22;9634;51.040;13.794;2022-07-04T08:39:37;24.00;99.90
19003;DHT22;9634;51.040;13.794;2022-07-04T08:44:46;24.20;99.90
19003;DHT22;9634;51.040;13.794;2022-07-04T08:49:53;24.70;99.90
19003;DHT22;9634;51.040;13.794;2022-07-04T08:54:57;25.00;99.90
19003;DHT22;9634;51.040;13.794;2022-07-04T09:00:19;25.20;99.90
19003;DHT22;9634;51.040;13.794;2022-07-04T09:05:22;25.00;99.90
19003;DHT22;9634;51.040;13.794;2022-07-04T09:10:24;25.50;99.90
19003;DHT22;9634;51.040;13.794;2022-07-04T09:15:28;25.50;99.90
19003;DHT22;9634;51.040;13.794;2022-07-04T09:20:32;25.80;99.90
19003;DHT22;9634;51.040;13.794;2022-07-04T09:25:34;26.00;99.90
19003;DHT22;9634;51.040;13.794;2022-07-04T09:30:47;26.00;98.00
19003;DHT22;9634;51.040;13.794;2022-07-04T09:35:49;25.90;97.50
19003;DHT22;9634;51.040;13.794;2022-07-04T09:40:53;26.70;94.50
19003;DHT22;9634;51.040;13.794;2022-07-04T09:46:22;28.40;86.00
19003;DHT22;9634;51.040;13.794;2022-07-04T09:51:38;30.40;72.10
19003;DHT22;9634;51.040;13.794;2022-07-04T09:56:41;31.60;55.50
19003;DHT22;9634;51.040;13.794;2022-07-04T10:01:45;30.10;59.90
19003;DHT22;9634;51.040;13.794;2022-07-04T10:06:47;30.90;54.60
19003;DHT22;9634;51.040;13.794;2022-07-04T10:11:49;29.80;57.90
19003;DHT22;9634;51.040;13.794;2022-07-04T10:16:54;32.10;50.50
19003;DHT22;9634;51.040;13.794;2022-07-04T10:21:56;34.80;40.90
19003;DHT22;9634;51.040;13.794;2022-07-04T10:26:58;34.80;37.70
19003;DHT22;9634;51.040;13.794;2022-07-04T10:32:03;35.90;33.80
19003;DHT22;9634;51.040;13.794;2022-07-04T10:37:07;37.50;28.30
19003;DHT22;9634;51.040;13.794;2022-07-04T10:42:22;37.70;28.20
19003;DHT22;9634;51.040;13.794;2022-07-04T10:47:26;39.60;24.90
19003;DHT22;9634;51.040;13.794;2022-07-04T10:52:30;38.00;24.80
19003;DHT22;9634;51.040;13.794;2022-07-04T10:57:38;39.10;23.30
19003;DHT22;9634;51.040;13.794;2022-07-04T11:02:41;39.90;22.60
19003;DHT22;9634;51.040;13.794;2022-07-04T11:08:00;41.40;20.50
19003;DHT22;9634;51.040;13.794;2022-07-04T11:13:16;43.90;18.20
19003;DHT22;9634;51.040;13.794;2022-07-04T11:18:20;45.30;15.90
19003;DHT22;9634;51.040;13.794;2022-07-04T11:23:23;41.40;18.50
19003;DHT22;9634;51.040;13.794;2022-07-04T11:28:27;40.20;19.70
19003;DHT22;9634;51.040;13.794;2022-07-04T11:33:33;40.00;19.60
19003;DHT22;9634;51.040;13.794;2022-07-04T11:38:51;43.30;17.20
19003;DHT22;9634;51.040;13.794;2022-07-04T11:43:54;42.50;17.00
19003;DHT22;9634;51.040;13.794;2022-07-04T11:49:15;44.00;16.40
19003;DHT22;9634;51.040;13.794;2022-07-04T11:54:18;45.10;15.40
19003;DHT22;9634;51.040;13.794;2022-07-04T11:59:20;43.30;16.50
19003;DHT22;9634;51.040;13.794;2022-07-04T12:04:24;44.80;14.70
19003;DHT22;9634;51.040;13.794;2022-07-04T12:09:26;45.60;14.10
19003;DHT22;9634;51.040;13.794;2022-07-04T12:14:28;47.40;12.90
19003;DHT22;9634;51.040;13.794;2022-07-04T12:19:32;48.60;12.40
19003;DHT22;9634;51.040;13.794;2022-07-04T12:24:41;49.30;10.60
19003;DHT22;9634;51.040;13.794;2022-07-04T12:29:48;51.00;9.50
19003;DHT22;9634;51.040;13.794;2022-07-04T12:34:52;50.70;9.50
19003;DHT22;9634;51.040;13.794;2022-07-04T12:39:54;48.20;11.10
19003;DHT22;9634;51.040;13.794;2022-07-04T12:45:05;50.40;9.70
19003;DHT22;9634;51.040;13.794;2022-07-04T12:50:09;47.70;10.70
19003;DHT22;9634;51.040;13.794;2022-07-04T12:55:11;49.90;9.60
19003;DHT22;9634;51.040;13.794;2022-07-04T13:00:16;48.20;10.30
19003;DHT22;9634;51.040;13.794;2022-07-04T13:05:20;48.80;10.00
19003;DHT22;9634;51.040;13.794;2022-07-04T13:10:22;48.30;10.40
19003;DHT22;9634;51.040;13.794;2022-07-04T13:15:24;49.30;10.00
19003;DHT22;9634;51.040;13.794;2022-07-04T13:20:28;51.70;8.40
19003;DHT22;9634;51.040;13.794;2022-07-04T13:25:30;50.30;8.90
19003;DHT22;9634;51.040;13.794;2022-07-04T13:30:33;48.70;9.70
19003;DHT22;9634;51.040;13.794;2022-07-04T13:35:36;49.40;9.30
19003;DHT22;9634;51.040;13.794;2022-07-04T13:40:39;51.00;8.50
19003;DHT22;9634;51.040;13.794;2022-07-04T13:45:43;54.00;6.30
19003;DHT22;9634;51.040;13.794;2022-07-04T13:50:50;54.50;6.20
19003;DHT22;9634;51.040;13.794;2022-07-04T13:55:52;53.30;6.50
19003;DHT22;9634;51.040;13.794;2022-07-04T14:00:54;51.30;7.40
19003;DHT22;9634;51.040;13.794;2022-07-04T14:05:58;48.10;8.90
19003;DHT22;9634;51.040;13.794;2022-07-04T14:11:01;49.30;9.20
19003;DHT22;9634;51.040;13.794;2022-07-04T14:16:03;50.40;7.80
19003;DHT22;9634;51.040;13.794;2022-07-04T14:21:08;52.10;6.90
19003;DHT22;9634;51.040;13.794;2022-07-04T14:26:12;54.40;5.40
19003;DHT22;9634;51.040;13.794;2022-07-04T14:31:15;54.50;5.40
19003;DHT22;9634;51.040;13.794;2022-07-04T14:36:19;50.90;6.90
19003;DHT22;9634;51.040;13.794;2022-07-04T14:41:21;51.90;6.50
19003;DHT22;9634;51.040;13.794;2022-07-04T14:46:24;51.20;6.30
19003;DHT22;9634;51.040;13.794;2022-07-04T14:51:28;51.80;6.20
19003;DHT22;9634;51.040;13.794;2022-07-04T14:56:30;51.30;6.10
19003;DHT22;9634;51.040;13.794;2022-07-04T15:01:33;51.70;6.10
19003;DHT22;9634;51.040;13.794;2022-07-04T15:06:36;51.90;6.20
19003;DHT22;9634;51.040;13.794;2022-07-04T15:11:39;50.60;6.10
19003;DHT22;9634;51.040;13.794;2022-07-04T15:16:41;50.70;6.10
19003;DHT22;9634;51.040;13.794;2022-07-04T15:21:45;51.60;5.20
19003;DHT22;9634;51.040;13.794;2022-07-04T15:27:04;51.40;5.50
19003;DHT22;9634;51.040;13.794;2022-07-04T15:32:07;53.70;4.40
19003;DHT22;9634;51.040;13.794;2022-07-04T15:37:10;55.10;3.60
19003;DHT22;9634;51.040;13.794;2022-07-04T15:42:13;53.60;3.30
19003;DHT22;9634;51.040;13.794;2022-07-04T15:47:15;52.40;3.80
19003;DHT22;9634;51.040;13.794;2022-07-04T15:52:19;50.70;4.90
19003;DHT22;9634;51.040;13.794;2022-07-04T15:57:23;47.60;6.70
19003;DHT22;9634;51.040;13.794;2022-07-04T16:02:25;49.00;5.30
19003;DHT22;9634;51.040;13.794;2022-07-04T16:07:29;47.10;6.30
19003;DHT22;9634;51.040;13.794;2022-07-04T16:12:32;47.50;6.50
19003;DHT22;9634;51.040;13.794;2022-07-04T16:17:34;48.20;6.30
19003;DHT22;9634;51.040;13.794;2022-07-04T16:22:38;47.90;6.10
19003;DHT22;9634;51.040;13.794;2022-07-04T16:27:41;47.60;6.60
19003;DHT22;9634;51.040;13.794;2022-07-04T16:32:43;48.40;6.10
19003;DHT22;9634;51.040;13.794;2022-07-04T16:37:48;49.00;6.00
19003;DHT22;9634;51.040;13.794;2022-07-04T16:42:51;49.40;5.80
19003;DHT22;9634;51.040;13.794;2022-07-04T16:47:53;48.50;6.20
19003;DHT22;9634;51.040;13.794;2022-07-04T16:52:57;46.50;7.20
19003;DHT22;9634;51.040;13.794;2022-07-04T16:57:59;46.10;7.50
19003;DHT22;9634;51.040;13.794;2022-07-04T17:03:01;45.10;8.10
19003;DHT22;9634;51.040;13.794;2022-07-04T17:08:05;43.60;9.50
19003;DHT22;9634;51.040;13.794;2022-07-04T17:13:08;41.50;10.30
19003;DHT22;9634;51.040;13.794;2022-07-04T17:18:10;38.50;13.20
19003;DHT22;9634;51.040;13.794;2022-07-04T17:23:14;39.20;13.00
19003;DHT22;9634;51.040;13.794;2022-07-04T17:28:16;39.70;12.60
19003;DHT22;9634;51.040;13.794;2022-07-04T17:33:18;39.60;12.20
19003;DHT22;9634;51.040;13.794;2022-07-04T17:38:22;38.50;13.20
19003;DHT22;9634;51.040;13.794;2022-07-04T17:43:25;35.40;15.80
19003;DHT22;9634;51.040;13.794;2022-07-04T17:48:27;32.30;19.30
19003;DHT22;9634;51.040;13.794;2022-07-04T17:53:31;31.20;21.60
19003;DHT22;9634;51.040;13.794;2022-07-04T17:58:35;32.80;20.00
19003;DHT22;9634;51.040;13.794;2022-07-04T18:03:38;33.80;19.10
19003;DHT22;9634;51.040;13.794;2022-07-04T18:08:42;34.30;18.40
19003;DHT22;9634;51.040;13.794;2022-07-04T18:13:45;33.60;18.30
19003;DHT22;9634;51.040;13.794;2022-07-04T18:18:48;31.40;21.10
19003;DHT22;9634;51.040;13.794;2022-07-04T18:23:52;29.40;23.90
19003;DHT22;9634;51.040;13.794;2022-07-04T18:28:54;28.10;26.90
19003;DHT22;9634;51.040;13.794;2022-07-04T18:33:57;27.20;29.30
19003;DHT22;9634;51.040;13.794;2022-07-04T18:39:00;26.50;30.00
19003;DHT22;9634;51.040;13.794;2022-07-04T18:44:03;26.00;31.30
19003;DHT22;9634;51.040;13.794;2022-07-04T18:49:05;25.60;33.90
19003;DHT22;9634;51.040;13.794;2022-07-04T18:54:09;25.30;36.20
19003;DHT22;9634;51.040;13.794;2022-07-04T18:59:11;25.00;36.70
19003;DHT22;9634;51.040;13.794;2022-07-04T19:04:13;24.80;36.90
19003;DHT22;9634;51.040;13.794;2022-07-04T19:09:17;24.60;42.70
19003;DHT22;9634;51.040;13.794;2022-07-04T19:14:20;24.40;39.70
19003;DHT22;9634;51.040;13.794;2022-07-04T19:19:23;24.10;40.20
19003;DHT22;9634;51.040;13.794;2022-07-04T19:24:27;23.80;39.80
19003;DHT22;9634;51.040;13.794;2022-07-04T19:29:30;23.60;49.70
19003;DHT22;9634;51.040;13.794;2022-07-04T19:34:32;23.40;55.70
19003;DHT22;9634;51.040;13.794;2022-07-04T19:39:36;23.30;62.60
19003;DHT22;9634;51.040;13.794;2022-07-04T19:44:38;23.40;71.60
19003;DHT22;9634;51.040;13.794;2022-07-04T19:49:40;23.60;62.40
19003;DHT22;9634;51.040;13.794;2022-07-04T19:54:44;23.60;60.90
19003;DHT22;9634;51.040;13.794;2022-07-04T19:59:47;23.30;55.30
19003;DHT22;9634;51.040;13.794;2022-07-04T20:04:49;22.90;54.30
19003;DHT22;9634;51.040;13.794;2022-07-04T20:09:53;22.60;55.60
19003;DHT22;9634;51.040;13.794;2022-07-04T20:14:55;22.30;56.90
19003;DHT22;9634;51.040;13.794;2022-07-04T20:20:02;22.20;57.60
19003;DHT22;9634;51.040;13.794;2022-07-04T20:25:07;22.00;59.40
19003;DHT22;9634;51.040;13.794;2022-07-04T20:30:11;21.80;59.60
19003;DHT22;9634;51.040;13.794;2022-07-04T20:35:15;21.60;60.20
19003;DHT22;9634;51.040;13.794;2022-07-04T20:40:19;21.40;61.60
19003;DHT22;9634;51.040;13.794;2022-07-04T20:45:22;21.40;61.50
19003;DHT22;9634;51.040;13.794;2022-07-04T20:50:24;21.30;63.90
19003;DHT22;9634;51.040;13.794;2022-07-04T20:55:28;21.10;66.10
19003;DHT22;9634;51.040;13.794;2022-07-04T21:00:30;21.20;66.60
19003;DHT22;9634;51.040;13.794;2022-07-04T21:05:33;21.30;63.50
19003;DHT22;9634;51.040;13.794;2022-07-04T21:10:36;21.20;62.00
19003;DHT22;9634;51.040;13.794;2022-07-04T21:15:39;21.20;62.30
19003;DHT22;9634;51.040;13.794;2022-07-04T21:20:41;21.10;62.60
19003;DHT22;9634;51.040;13.794;2022-07-04T21:25:45;21.10;61.00
19003;DHT22;9634;51.040;13.794;2022-07-04T21:30:49;20.90;61.10
19003;DHT22;9634;51.040;13.794;2022-07-04T21:35:51;20.50;64.40
19003;DHT22;9634;51.040;13.794;2022-07-04T21:40:55;20.40;65.20
19003;DHT22;9634;51.040;13.794;2022-07-04T21:45:59;20.70;64.70
19003;DHT22;9634;51.040;13.794;2022-07-04T21:51:02;21.00;61.70
19003;DHT22;9634;51.040;13.794;2022-07-04T21:56:05;20.70;62.50
19003;DHT22;9634;51.040;13.794;2022-07-04T22:01:08;20.50;63.80
19003;DHT22;9634;51.040;13.794;2022-07-04T22:08:24;20.60;63.90
19003;DHT22;9634;51.040;13.794;2022-07-04T22:13:26;20.70;63.20
19003;DHT22;9634;51.040;13.794;2022-07-04T22:18:29;20.50;64.20
19003;DHT22;9634;51.040;13.794;2022-07-04T22:23:33;20.40;65.80
19003;DHT22;9634;51.040;13.794;2022-07-04T22:28:35;20.50;66.10
19003;DHT22;9634;51.040;13.794;2022-07-04T22:33:38;20.40;65.40
19003;DHT22;9634;51.040;13.794;2022-07-04T22:38:42;20.20;67.90
19003;DHT22;9634;51.040;13.794;2022-07-04T22:43:44;19.90;69.80
19003;DHT22;9634;51.040;13.794;2022-07-04T22:48:47;19.70;71.20
19003;DHT22;9634;51.040;13.794;2022-07-04T22:53:52;19.70;73.30
19003;DHT22;9634;51.040;13.794;2022-07-04T22:59:12;19.60;76.60
19003;DHT22;9634;51.040;13.794;2022-07-04T23:04:16;19.50;78.70
19003;DHT22;9634;51.040;13.794;2022-07-04T23:09:20;19.30;80.80
19003;DHT22;9634;51.040;13.794;2022-07-04T23:14:23;19.20;84.70
19003;DHT22;9634;51.040;13.794;2022-07-04T23:19:26;19.10;89.50
19003;DHT22;9634;51.040;13.794;2022-07-04T23:24:30;19.00;90.90
19003;DHT22;9634;51.040;13.794;2022-07-04T23:29:32;18.90;92.50
19003;DHT22;9634;51.040;13.794;2022-07-04T23:34:35;18.90;94.30
19003;DHT22;9634;51.040;13.794;2022-07-04T23:39:39;18.90;95.50
19003;DHT22;9634;51.040;13.794;2022-07-04T23:44:42;18.80;96.90
19003;DHT22;9634;51.040;13.794;2022-07-04T23:49:45;18.80;97.90
19003;DHT22;9634;51.040;13.794;2022-07-04T23:54:48;18.80;98.50
19003;DHT22;9634;51.040;13.794;2022-07-04T23:59:50;18.80;98.50
